createdAt,value
2017-11-20T00:00:27.684Z,98532.52
2017-11-20T00:02:54.111Z,98560.36
2017-11-20T00:05:20.480Z,98549.22
2017-11-20T00:07:46.882Z,98561.07
2017-11-20T00:10:13.212Z,98554.17
2017-11-20T00:12:40.473Z,98567.04
2017-11-20T00:15:06.899Z,98573.83
2017-11-20T00:17:33.333Z,98580.92
2017-11-20T00:19:59.770Z,98568.23
2017-11-20T00:22:26.103Z,98564.65
2017-11-20T00:24:52.503Z,98559.59
2017-11-20T00:27:18.909Z,98561.30
2017-11-20T00:29:46.121Z,98535.88
2017-11-20T00:32:12.491Z,98575.83
2017-11-20T00:34:38.887Z,98584.36
2017-11-20T00:37:05.324Z,98595.43
2017-11-20T00:39:31.757Z,98596.61
2017-11-20T00:41:58.195Z,98588.83
2017-11-20T00:44:24.635Z,98584.99
2017-11-20T00:46:51.854Z,98588.72
2017-11-20T00:49:18.317Z,98582.72
2017-11-20T00:51:44.754Z,98581.52
2017-11-20T00:54:11.190Z,98572.23
2017-11-20T00:56:37.620Z,98569.49
2017-11-20T00:59:04.055Z,98555.09
2017-11-20T01:01:30.490Z,98578.53
2017-11-20T01:03:57.712Z,98586.71
2017-11-20T01:06:24.111Z,98588.02
2017-11-20T01:08:50.510Z,98585.59
2017-11-20T01:11:16.953Z,98593.98
2017-11-20T01:13:43.378Z,98596.73
2017-11-20T01:16:09.812Z,98592.25
2017-11-20T01:18:36.256Z,98600.27
2017-11-20T01:21:03.510Z,98589.27
2017-11-20T01:23:29.909Z,98596.77
2017-11-20T01:25:56.352Z,98590.64
2017-11-20T01:28:22.771Z,98586.64
2017-11-20T01:30:49.179Z,98602.88
2017-11-20T01:33:15.597Z,98601.99
2017-11-20T01:35:42.028Z,98603.19
2017-11-20T01:38:09.168Z,98594.33
2017-11-20T01:40:35.602Z,98596.58
2017-11-20T01:43:02.028Z,98600.27
2017-11-20T01:45:28.464Z,98609.22
2017-11-20T01:47:54.900Z,98596.69
2017-11-20T01:50:21.359Z,98603.19
2017-11-20T01:52:47.714Z,98592.34
2017-11-20T01:55:14.882Z,98597.01
2017-11-20T01:57:41.323Z,98596.32
2017-11-20T02:00:07.764Z,98597.24
2017-11-20T02:02:34.207Z,98590.23
2017-11-20T02:05:00.660Z,98592.38
2017-11-20T02:07:27.094Z,98592.79
2017-11-20T02:09:53.526Z,98582.86
2017-11-20T02:12:20.780Z,98582.16
2017-11-20T02:14:47.215Z,98578.25
2017-11-20T02:17:13.584Z,98577.08
2017-11-20T02:19:40.092Z,98554.38
2017-11-20T02:22:06.487Z,98580.03
2017-11-20T02:24:32.953Z,98584.52
2017-11-20T02:26:59.387Z,98588.67
2017-11-20T02:29:26.508Z,98586.50
2017-11-20T02:31:52.978Z,98586.33
2017-11-20T02:34:19.412Z,98594.37
2017-11-20T02:36:45.843Z,98595.52
2017-11-20T02:39:12.285Z,98592.70
2017-11-20T02:41:38.713Z,98593.91
2017-11-20T02:44:05.155Z,98595.84
2017-11-20T02:46:32.299Z,98606.13
2017-11-20T02:48:58.734Z,98601.59
2017-11-20T02:51:25.170Z,98603.14
2017-11-20T02:53:51.610Z,98603.62
2017-11-20T02:56:18.038Z,98607.16
2017-11-20T02:58:44.481Z,98607.88
2017-11-20T03:01:10.906Z,98611.05
2017-11-20T03:03:38.067Z,98612.52
2017-11-20T03:06:04.493Z,98610.81
2017-11-20T03:08:30.927Z,98610.91
2017-11-20T03:10:57.362Z,98610.77
2017-11-20T03:13:23.796Z,98611.59
2017-11-20T03:15:50.230Z,98615.33
2017-11-20T03:18:16.675Z,98615.55
2017-11-20T03:20:43.825Z,98611.47
2017-11-20T03:23:10.268Z,98610.89
2017-11-20T03:25:36.686Z,98613.14
2017-11-20T03:28:03.131Z,98616.22
2017-11-20T03:30:29.665Z,98615.23
2017-11-20T03:32:56.092Z,98619.56
2017-11-20T03:35:22.458Z,98616.33
2017-11-20T03:37:49.686Z,98616.53
2017-11-20T03:40:16.114Z,98616.19
2017-11-20T03:42:42.557Z,98617.66
2017-11-20T03:45:08.991Z,98621.30
2017-11-20T03:47:35.417Z,98621.50
2017-11-20T03:50:01.861Z,98630.26
2017-11-20T03:52:28.287Z,98630.84
2017-11-20T03:54:55.439Z,98633.08
2017-11-20T03:57:21.880Z,98629.47
2017-11-20T03:59:48.322Z,98634.20
2017-11-20T04:02:14.752Z,98633.42
2017-11-20T04:04:41.183Z,98628.42
2017-11-20T04:07:07.612Z,98624.47
2017-11-20T04:09:34.048Z,98623.28
2017-11-20T04:12:01.300Z,98626.20
2017-11-20T04:14:27.734Z,98633.02
2017-11-20T04:16:54.169Z,98630.94
2017-11-20T04:19:20.607Z,98629.58
2017-11-20T04:21:47.048Z,98636.36
2017-11-20T04:24:13.585Z,98632.30
2017-11-20T04:26:40.020Z,98636.35
2017-11-20T04:29:07.161Z,98634.95
2017-11-20T04:31:33.599Z,98639.28
2017-11-20T04:34:00.033Z,98638.91
2017-11-20T04:36:26.447Z,98647.62
2017-11-20T04:38:52.902Z,98648.88
2017-11-20T04:41:19.338Z,98646.64
2017-11-20T04:43:45.769Z,98653.41
2017-11-20T04:46:12.921Z,98650.79
2017-11-20T04:48:39.355Z,98656.62
2017-11-20T04:51:05.792Z,98653.00
2017-11-20T04:53:32.225Z,98656.69
2017-11-20T04:55:58.660Z,98657.50
2017-11-20T04:58:25.102Z,98659.98
2017-11-20T05:00:51.528Z,98658.90
2017-11-20T05:03:18.783Z,98657.54
2017-11-20T05:05:45.105Z,98665.92
2017-11-20T05:08:11.558Z,98670.58
2017-11-20T05:10:37.985Z,98672.80
2017-11-20T05:13:04.428Z,98677.50
2017-11-20T05:15:30.853Z,98680.94
2017-11-20T05:17:57.296Z,98679.67
2017-11-20T05:20:24.441Z,98673.98
2017-11-20T05:22:50.875Z,98680.89
2017-11-20T05:25:17.310Z,98678.11
2017-11-20T05:27:43.855Z,98681.47
2017-11-20T05:30:10.281Z,98683.99
2017-11-20T05:32:36.716Z,98684.61
2017-11-20T05:35:03.151Z,98685.80
2017-11-20T05:37:30.377Z,98686.48
2017-11-20T05:39:56.820Z,98687.22
2017-11-20T05:42:23.270Z,98689.91
2017-11-20T05:44:49.713Z,98696.56
2017-11-20T05:47:16.142Z,98700.33
2017-11-20T05:49:42.585Z,98705.48
2017-11-20T05:52:09.013Z,98689.27
2017-11-20T05:54:36.165Z,98686.64
2017-11-20T05:57:02.607Z,98682.63
2017-11-20T05:59:29.042Z,98689.83
2017-11-20T06:01:55.578Z,98693.56
2017-11-20T06:04:22.007Z,98694.02
2017-11-20T06:06:48.448Z,98693.81
2017-11-20T06:09:14.874Z,98699.75
2017-11-20T06:11:42.026Z,98702.90
2017-11-20T06:14:08.399Z,98708.09
2017-11-20T06:16:34.903Z,98704.42
2017-11-20T06:19:01.314Z,98699.24
2017-11-20T06:21:27.735Z,98704.73
2017-11-20T06:23:54.198Z,98707.52
2017-11-20T06:26:21.154Z,98707.02
2017-11-20T06:28:47.583Z,98702.15
2017-11-20T06:31:14.013Z,98708.48
2017-11-20T06:33:40.415Z,98706.55
2017-11-20T06:36:07.294Z,98709.82
2017-11-20T06:38:33.835Z,98710.33
2017-11-20T06:41:00.273Z,98712.61
2017-11-20T06:43:26.708Z,98710.06
2017-11-20T06:45:53.133Z,98714.13
2017-11-20T06:48:19.578Z,98714.02
2017-11-20T06:50:46.022Z,98717.84
2017-11-20T06:53:12.849Z,98721.86
2017-11-20T06:55:39.222Z,98720.53
2017-11-20T06:58:05.615Z,98728.98
2017-11-20T07:00:32.048Z,98730.21
2017-11-20T07:02:58.427Z,98726.16
2017-11-20T07:05:24.927Z,98732.15
2017-11-20T07:07:51.353Z,98735.12
2017-11-20T07:10:17.788Z,98734.37
2017-11-20T07:12:44.736Z,98741.38
2017-11-20T07:15:11.702Z,98741.63
2017-11-20T07:17:38.119Z,98743.52
2017-11-20T07:20:04.716Z,98749.77
2017-11-20T07:22:31.190Z,98749.80
2017-11-20T07:24:57.736Z,98744.85
2017-11-20T07:27:24.444Z,98751.40
2017-11-20T07:29:50.905Z,98750.28
2017-11-20T07:32:17.725Z,98754.77
2017-11-20T07:34:44.166Z,98752.26
2017-11-20T07:37:10.515Z,98754.58
2017-11-20T07:39:37.461Z,98753.94
2017-11-20T07:42:03.998Z,98763.41
2017-11-20T07:44:30.505Z,98763.81
2017-11-20T07:46:57.288Z,98764.22
2017-11-20T07:49:24.228Z,98764.36
2017-11-20T07:51:50.760Z,98769.13
2017-11-20T07:54:17.920Z,98774.20
2017-11-20T07:56:44.654Z,98770.05
2017-11-20T07:59:11.092Z,98776.97
2017-11-20T08:01:37.626Z,98780.17
2017-11-20T08:04:04.427Z,98782.22
2017-11-20T08:06:30.897Z,98787.94
2017-11-20T08:08:57.305Z,98781.19
2017-11-20T08:11:24.180Z,98779.11
2017-11-20T08:13:50.722Z,98786.17
2017-11-20T08:16:17.164Z,98787.47
2017-11-20T08:18:43.794Z,98788.26
2017-11-20T08:21:10.115Z,98792.95
2017-11-20T08:23:36.563Z,98800.08
2017-11-20T08:26:03.274Z,98801.52
2017-11-20T08:28:29.745Z,98793.71
2017-11-20T08:30:56.181Z,98798.38
2017-11-20T08:33:23.123Z,98803.13
2017-11-20T08:35:49.556Z,98805.61
2017-11-20T08:38:15.920Z,98808.19
2017-11-20T08:40:42.321Z,98807.23
2017-11-20T08:43:08.843Z,98806.18
2017-11-20T08:45:35.295Z,98804.50
2017-11-20T08:48:02.147Z,98812.09
2017-11-20T08:50:28.578Z,98802.54
2017-11-20T08:52:55.119Z,98808.36
2017-11-20T08:55:21.552Z,98801.85
2017-11-20T08:57:48.186Z,98805.12
2017-11-20T09:00:14.734Z,98813.67
2017-11-20T09:02:41.178Z,98819.67
2017-11-20T09:05:07.579Z,98814.41
2017-11-20T09:07:34.367Z,98817.72
2017-11-20T09:10:00.798Z,98812.33
2017-11-20T09:12:27.312Z,98814.23
2017-11-20T09:14:53.849Z,98814.38
2017-11-20T09:17:20.273Z,98811.95
2017-11-20T09:19:47.118Z,98806.06
2017-11-20T09:22:13.757Z,98812.95
2017-11-20T09:24:40.303Z,98804.64
2017-11-20T09:27:07.140Z,98808.08
2017-11-20T09:29:33.575Z,98805.48
2017-11-20T09:32:00.113Z,98810.72
2017-11-20T09:34:26.964Z,98812.22
2017-11-20T09:36:54.003Z,98813.31
2017-11-20T09:39:20.549Z,98810.27
2017-11-20T09:41:47.375Z,98809.02
2017-11-20T09:44:13.820Z,98803.63
2017-11-20T09:46:40.367Z,98801.46
2017-11-20T09:49:07.235Z,98800.34
2017-11-20T09:51:33.739Z,98804.27
2017-11-20T09:54:00.284Z,98795.27
2017-11-20T09:56:27.020Z,98796.29
2017-11-20T09:58:53.555Z,98799.40
2017-11-20T10:01:20.100Z,98791.26
2017-11-20T10:03:46.730Z,98790.13
2017-11-20T10:06:13.272Z,98794.84
2017-11-20T10:08:39.819Z,98781.55
2017-11-20T10:11:06.239Z,98783.55
2017-11-20T10:13:33.083Z,98780.18
2017-11-20T10:15:59.518Z,98782.02
2017-11-20T10:18:25.952Z,98777.01
2017-11-20T10:20:52.796Z,98776.26
2017-11-20T10:23:19.231Z,98772.34
2017-11-20T10:25:46.179Z,98772.70
2017-11-20T10:28:13.125Z,98775.02
2017-11-20T10:30:39.560Z,98774.82
2017-11-20T10:33:05.993Z,98773.76
2017-11-20T10:35:32.926Z,98769.19
2017-11-20T10:37:59.277Z,98765.72
2017-11-20T10:40:25.710Z,98759.92
2017-11-20T10:42:52.349Z,98767.77
2017-11-20T10:45:18.785Z,98770.33
2017-11-20T10:47:45.218Z,98765.48
2017-11-20T10:50:11.826Z,98764.30
2017-11-20T10:52:38.394Z,98761.80
2017-11-20T10:55:04.832Z,98763.44
2017-11-20T10:57:31.775Z,98765.97
2017-11-20T10:59:58.211Z,98760.27
2017-11-20T11:02:24.746Z,98766.98
2017-11-20T11:04:51.385Z,98763.77
2017-11-20T11:07:17.819Z,98770.32
2017-11-20T11:09:44.258Z,98771.78
2017-11-20T11:12:11.100Z,98767.69
2017-11-20T11:14:37.534Z,98773.80
2017-11-20T11:17:03.968Z,98766.19
2017-11-20T11:19:30.907Z,98764.63
2017-11-20T11:21:57.451Z,98769.36
2017-11-20T11:24:23.887Z,98768.98
2017-11-20T11:26:50.505Z,98768.13
2017-11-20T11:29:16.961Z,98779.95
2017-11-20T11:31:43.501Z,98774.33
2017-11-20T11:34:10.140Z,98783.58
2017-11-20T11:36:36.577Z,98785.35
2017-11-20T11:39:03.472Z,98784.25
2017-11-20T11:41:29.952Z,98778.03
2017-11-20T11:43:56.439Z,98779.26
2017-11-20T11:46:23.232Z,98771.97
2017-11-20T11:48:49.667Z,98770.74
2017-11-20T11:51:16.277Z,98769.44
2017-11-20T11:53:43.052Z,98765.23
2017-11-20T11:56:09.489Z,98768.16
2017-11-20T11:58:35.922Z,98769.92
2017-11-20T12:01:02.864Z,98770.63
2017-11-20T12:03:29.386Z,98766.83
2017-11-20T12:05:56.245Z,98774.81
2017-11-20T12:08:22.994Z,98766.28
2017-11-20T12:10:49.730Z,98764.87
2017-11-20T12:13:16.677Z,98763.84
2017-11-20T12:15:43.826Z,98757.33
2017-11-20T12:18:10.464Z,98757.13
2017-11-20T12:20:36.982Z,98755.27
2017-11-20T12:23:03.745Z,98749.91
2017-11-20T12:25:30.180Z,98748.44
2017-11-20T12:27:56.615Z,98748.27
2017-11-20T12:30:23.258Z,98746.06
2017-11-20T12:32:49.792Z,98750.94
2017-11-20T12:35:16.331Z,98751.00
2017-11-20T12:37:43.171Z,98743.41
2017-11-20T12:40:09.606Z,98739.16
2017-11-20T12:42:36.144Z,98739.97
2017-11-20T12:45:02.637Z,98742.55
2017-11-20T12:47:29.014Z,98740.53
2017-11-20T12:49:55.560Z,98741.51
2017-11-20T12:52:22.195Z,98743.27
2017-11-20T12:54:48.700Z,98741.72
2017-11-20T12:57:15.059Z,98745.34
2017-11-20T12:59:42.108Z,98746.70
2017-11-20T13:02:08.620Z,98747.40
2017-11-20T13:04:35.063Z,98742.36
2017-11-20T13:07:01.964Z,98744.92
2017-11-20T13:09:28.399Z,98743.99
2017-11-20T13:11:55.000Z,98741.33
2017-11-20T13:14:22.150Z,98739.09
2017-11-20T13:16:48.892Z,98736.51
2017-11-20T13:19:15.428Z,98742.16
2017-11-20T13:21:43.843Z,98734.15
2017-11-20T13:24:10.549Z,98735.63
2017-11-20T13:26:37.552Z,98734.91
2017-11-20T13:29:04.998Z,98732.51
2017-11-20T13:31:31.541Z,98727.17
2017-11-20T13:33:58.236Z,98743.37
2017-11-20T13:36:25.284Z,98735.37
2017-11-20T13:38:52.351Z,98738.86
2017-11-20T13:41:18.973Z,98734.63
2017-11-20T13:43:45.615Z,98736.66
2017-11-20T13:46:12.252Z,98731.74
2017-11-20T13:48:38.873Z,98729.62
2017-11-20T13:51:05.524Z,98726.16
2017-11-20T13:53:32.066Z,98721.23
2017-11-20T13:55:58.694Z,98722.44
2017-11-20T13:58:25.990Z,98729.13
2017-11-20T14:00:52.600Z,98720.56
2017-11-20T14:03:19.033Z,98732.61
2017-11-20T14:05:46.303Z,98735.42
2017-11-20T14:08:12.927Z,98728.60
2017-11-20T14:10:39.364Z,98735.70
2017-11-20T14:13:06.515Z,98727.55
2017-11-20T14:15:33.159Z,98729.76
2017-11-20T14:17:59.691Z,98726.44
2017-11-20T14:20:27.251Z,98718.44
2017-11-20T14:22:53.787Z,98725.80
2017-11-20T14:25:20.156Z,98727.33
2017-11-20T14:27:47.067Z,98726.18
2017-11-20T14:30:13.504Z,98727.91
2017-11-20T14:32:40.042Z,98733.91
2017-11-20T14:35:06.867Z,98730.95
2017-11-20T14:37:33.322Z,98731.31
2017-11-20T14:40:00.060Z,98725.02
2017-11-20T14:42:27.110Z,98724.31
2017-11-20T14:44:53.767Z,98726.80
2017-11-20T14:47:23.269Z,98733.59
2017-11-20T15:02:26.637Z,98752.98
2017-11-20T15:04:53.074Z,98766.31
2017-11-20T15:07:19.405Z,98755.92
2017-11-20T15:09:46.235Z,98754.83
2017-11-20T15:12:12.581Z,98752.98
2017-11-20T15:14:39.015Z,98751.78
2017-11-20T15:17:05.450Z,98761.78
2017-11-20T15:19:31.992Z,98770.84
2017-11-20T15:21:58.320Z,98769.52
2017-11-20T15:24:24.763Z,98763.91
2017-11-20T15:26:51.638Z,98772.56
2017-11-20T15:29:18.036Z,98770.70
2017-11-20T15:31:44.477Z,98774.14
2017-11-20T15:34:11.014Z,98766.39
2017-11-20T15:36:37.438Z,98776.80
2017-11-20T15:39:03.801Z,98772.22
2017-11-20T15:41:30.318Z,98777.27
2017-11-20T15:43:56.744Z,98774.56
2017-11-20T15:46:23.185Z,98772.79
2017-11-20T15:48:49.544Z,98788.38
2017-11-20T15:51:16.062Z,98781.56
2017-11-20T15:53:42.481Z,98784.17
2017-11-20T15:56:08.924Z,98783.62
2017-11-20T15:58:35.372Z,98791.05
2017-11-20T16:01:01.790Z,98796.70
2017-11-20T16:03:28.259Z,98800.86
2017-11-20T16:05:54.655Z,98798.65
2017-11-20T16:08:21.754Z,98800.50
2017-11-20T16:10:48.212Z,98803.19
2017-11-20T16:13:14.659Z,98783.00
2017-11-20T16:15:41.095Z,98813.53
2017-11-20T16:18:07.566Z,98809.59
2017-11-20T16:20:33.980Z,98815.02
2017-11-20T16:23:00.419Z,98823.01
2017-11-20T16:25:26.783Z,98819.13
2017-11-20T16:27:53.182Z,98820.95
2017-11-20T16:30:19.516Z,98829.70
2017-11-20T16:32:45.949Z,98832.06
2017-11-20T16:35:12.280Z,98831.44
2017-11-20T16:37:38.716Z,98841.72
2017-11-20T16:40:05.040Z,98840.73
2017-11-20T16:42:31.488Z,98832.70
2017-11-20T16:44:57.918Z,98843.34
2017-11-20T16:47:25.068Z,98843.39
2017-11-20T16:49:51.505Z,98846.45
2017-11-20T16:52:17.946Z,98854.93
2017-11-20T16:54:44.388Z,98854.58
2017-11-20T16:57:10.808Z,98854.55
2017-11-20T16:59:37.260Z,98853.33
2017-11-20T17:02:03.609Z,98856.19
2017-11-20T17:04:30.827Z,98857.86
2017-11-20T17:06:57.199Z,98856.44
2017-11-20T17:09:23.527Z,98859.38
2017-11-20T17:11:49.995Z,98854.08
2017-11-20T17:14:16.452Z,98824.16
2017-11-20T17:16:42.900Z,98854.49
2017-11-20T17:19:09.314Z,98866.26
2017-11-20T17:21:36.553Z,98862.60
2017-11-20T17:24:02.950Z,98861.23
2017-11-20T17:26:29.338Z,98868.44
2017-11-20T17:28:55.789Z,98867.59
2017-11-20T17:31:22.223Z,98865.40
2017-11-20T17:33:48.760Z,98857.92
2017-11-20T17:36:15.200Z,98871.49
2017-11-20T17:38:42.357Z,98874.45
2017-11-20T17:41:08.791Z,98880.77
2017-11-20T17:43:35.225Z,98878.95
2017-11-20T17:46:01.649Z,98881.31
2017-11-20T17:48:28.085Z,98878.44
2017-11-20T17:50:54.531Z,98887.92
2017-11-20T17:53:20.957Z,98887.13
2017-11-20T17:55:48.108Z,98888.65
2017-11-20T17:58:14.545Z,98890.28
2017-11-20T18:00:40.996Z,98883.63
2017-11-20T18:03:07.412Z,98884.30
2017-11-20T18:05:33.851Z,98888.52
2017-11-20T18:08:00.212Z,98887.51
2017-11-20T18:10:26.727Z,98887.70
2017-11-20T18:12:53.763Z,98883.98
2017-11-20T18:15:20.197Z,98898.30
2017-11-20T18:17:46.632Z,98907.41
2017-11-20T18:20:13.064Z,98903.12
2017-11-20T18:22:39.501Z,98907.80
2017-11-20T18:25:05.936Z,98904.02
2017-11-20T18:27:32.379Z,98905.73
2017-11-20T18:29:59.524Z,98912.63
2017-11-20T18:32:25.922Z,98914.64
2017-11-20T18:34:52.321Z,98909.59
2017-11-20T18:37:18.860Z,98922.23
2017-11-20T18:39:45.376Z,98925.63
2017-11-20T18:42:11.796Z,98916.77
2017-11-20T18:44:38.242Z,98917.98
2017-11-20T18:47:05.497Z,98927.89
2017-11-20T18:49:31.850Z,98915.56
2017-11-20T18:51:58.251Z,98914.31
2017-11-20T18:54:24.723Z,98913.16
2017-11-20T18:56:51.122Z,98912.91
2017-11-20T18:59:17.556Z,98922.28
2017-11-20T19:01:44.000Z,98919.59
2017-11-20T19:04:11.150Z,98916.17
2017-11-20T19:06:37.577Z,98917.94
2017-11-20T19:09:04.011Z,98920.77
2017-11-20T19:11:30.344Z,98922.23
2017-11-20T19:13:56.778Z,98926.39
2017-11-20T19:16:23.186Z,98928.27
2017-11-20T19:18:49.582Z,98929.49
2017-11-20T19:21:16.814Z,98929.49
2017-11-20T19:23:43.131Z,98939.06
2017-11-20T19:26:09.567Z,98938.19
2017-11-20T19:28:35.999Z,98934.82
2017-11-20T19:31:02.438Z,98934.20
2017-11-20T19:33:28.870Z,98939.74
2017-11-20T19:35:55.309Z,98941.92
2017-11-20T19:38:22.673Z,98934.87
2017-11-20T19:40:49.095Z,98939.53
2017-11-20T19:43:15.515Z,98945.70
2017-11-20T19:45:41.970Z,98949.16
2017-11-20T19:48:08.408Z,98947.30
2017-11-20T19:50:34.849Z,98956.11
2017-11-20T19:53:01.268Z,98952.77
2017-11-20T19:55:28.400Z,98961.17
2017-11-20T19:57:54.848Z,98955.02
2017-11-20T20:00:21.292Z,98965.47
2017-11-20T20:02:47.731Z,98960.11
2017-11-20T20:05:14.151Z,98962.94
2017-11-20T20:07:40.724Z,98958.84
2017-11-20T20:10:07.240Z,98963.87
2017-11-20T20:12:34.383Z,98961.80
2017-11-20T20:15:00.819Z,98963.65
2017-11-20T20:17:27.254Z,98960.28
2017-11-20T20:19:53.687Z,98969.61
2017-11-20T20:22:20.226Z,98960.58
2017-11-20T20:24:46.763Z,98956.66
2017-11-20T20:27:13.196Z,98962.23
2017-11-20T20:29:40.356Z,98960.80
2017-11-20T20:32:06.781Z,98966.61
2017-11-20T20:34:33.225Z,98965.53
2017-11-20T20:36:59.660Z,98970.45
2017-11-20T20:39:26.055Z,98978.39
2017-11-20T20:41:52.521Z,98965.77
2017-11-20T20:44:18.955Z,98976.30
2017-11-20T20:46:46.218Z,98971.61
2017-11-20T20:49:12.746Z,98981.25
2017-11-20T20:51:39.189Z,98986.63
2017-11-20T20:54:05.548Z,98978.58
2017-11-20T20:56:31.950Z,98987.66
2017-11-20T20:58:58.383Z,98988.56
2017-11-20T21:01:24.816Z,98985.95
2017-11-20T21:03:51.969Z,98993.56
2017-11-20T21:06:18.402Z,98993.73
2017-11-20T21:08:44.846Z,98988.61
2017-11-20T21:11:11.281Z,98991.22
2017-11-20T21:13:37.716Z,98989.16
2017-11-20T21:16:04.141Z,98988.01
2017-11-20T21:18:30.578Z,98992.48
2017-11-20T21:20:57.559Z,99000.41
2017-11-20T21:23:23.966Z,99005.89
2017-11-20T21:25:50.400Z,98996.73
2017-11-20T21:28:16.936Z,98996.77
2017-11-20T21:30:43.365Z,98999.41
2017-11-20T21:33:09.806Z,99002.86
2017-11-20T21:35:36.241Z,98998.86
2017-11-20T21:38:03.367Z,99003.78
2017-11-20T21:40:29.813Z,99006.30
2017-11-20T21:42:56.255Z,99006.45
2017-11-20T21:45:22.689Z,99011.95
2017-11-20T21:47:49.123Z,99013.69
2017-11-20T21:50:15.558Z,99012.02
2017-11-20T21:52:41.992Z,99012.83
2017-11-20T21:55:09.246Z,99011.37
2017-11-20T21:57:35.688Z,99017.17
2017-11-20T22:00:02.118Z,99016.93
2017-11-20T22:02:28.661Z,99014.38
2017-11-20T22:04:55.090Z,99025.47
2017-11-20T22:07:21.535Z,99026.39
2017-11-20T22:09:47.963Z,99026.16
2017-11-20T22:12:15.211Z,99036.43
2017-11-20T22:14:41.653Z,99033.39
2017-11-20T22:17:08.079Z,99045.04
2017-11-20T22:19:34.513Z,99035.51
2017-11-20T22:22:00.947Z,99044.16
2017-11-20T22:24:27.351Z,99044.12
2017-11-20T22:26:53.820Z,99040.13
2017-11-20T22:29:20.970Z,99039.23
2017-11-20T22:31:47.408Z,99036.06
2017-11-20T22:34:13.847Z,99038.95
2017-11-20T22:36:40.169Z,99042.34
2017-11-20T22:39:06.716Z,99050.13
2017-11-20T22:41:33.142Z,99042.23
2017-11-20T22:43:59.507Z,99036.70
2017-11-20T22:46:26.857Z,99042.92
2017-11-20T22:48:53.267Z,99041.28
2017-11-20T22:51:19.699Z,99042.27
2017-11-20T22:53:46.133Z,99049.50
2017-11-20T22:56:12.681Z,99044.28
2017-11-20T22:58:39.127Z,99044.66
2017-11-20T23:01:05.541Z,99045.61
2017-11-20T23:03:32.794Z,99043.50
2017-11-20T23:05:59.238Z,99049.30
2017-11-20T23:08:25.664Z,99059.13
2017-11-20T23:10:52.100Z,99045.78
2017-11-20T23:13:18.540Z,99048.17
2017-11-20T23:15:44.967Z,99039.16
2017-11-20T23:18:11.386Z,99046.44
2017-11-20T23:20:38.560Z,99058.11
2017-11-20T23:23:04.988Z,99057.19
2017-11-20T23:25:31.431Z,99060.13
2017-11-20T23:27:57.857Z,99057.19
2017-11-20T23:30:24.195Z,99057.27
2017-11-20T23:32:50.729Z,99067.43
2017-11-20T23:35:17.161Z,99067.16
2017-11-20T23:37:44.326Z,99065.86
2017-11-20T23:40:10.749Z,99058.05
2017-11-20T23:42:37.183Z,99071.12
2017-11-20T23:45:03.596Z,99070.16
2017-11-20T23:47:30.052Z,99066.44
2017-11-20T23:49:56.485Z,99069.91
2017-11-20T23:52:23.024Z,99066.73
2017-11-20T23:54:50.176Z,99073.09
2017-11-20T23:57:16.714Z,99068.23
2017-11-20T23:59:43.145Z,99077.23
